createdAt,value
2018-07-11T00:00:10.016Z,66.54
2018-07-11T00:02:38.248Z,65.85
2018-07-11T00:05:06.525Z,65.80
2018-07-11T00:07:34.749Z,64.96
2018-07-11T00:10:03.115Z,66.20
2018-07-11T00:12:31.325Z,66.35
2018-07-11T00:14:59.559Z,66.22
2018-07-11T00:17:27.733Z,66.46
2018-07-11T00:19:56.029Z,66.91
2018-07-11T00:22:24.293Z,66.87
2018-07-11T00:24:52.556Z,66.20
2018-07-11T00:27:20.800Z,66.17
2018-07-11T00:29:49.040Z,66.69
2018-07-11T00:32:17.512Z,66.36
2018-07-11T00:34:45.800Z,66.35
2018-07-11T00:37:14.120Z,65.73
2018-07-11T00:39:42.329Z,66.53
2018-07-11T00:42:10.581Z,66.39
2018-07-11T00:44:38.850Z,66.55
2018-07-11T00:47:07.114Z,66.87
2018-07-11T00:49:35.341Z,66.53
2018-07-11T00:52:03.578Z,66.75
2018-07-11T00:54:31.821Z,65.33
2018-07-11T00:57:00.502Z,66.49
2018-07-11T00:59:30.239Z,65.87
2018-07-11T01:02:03.951Z,66.57
2018-07-11T01:04:32.587Z,65.71
2018-07-11T01:07:04.013Z,66.60
2018-07-11T01:09:33.024Z,66.02
2018-07-11T01:12:01.273Z,65.62
2018-07-11T01:14:29.513Z,66.01
2018-07-11T01:16:57.768Z,66.06
2018-07-11T01:19:26.025Z,65.98
2018-07-11T01:22:02.109Z,66.53
2018-07-11T01:24:31.208Z,67.09
2018-07-11T01:27:00.352Z,66.11
2018-07-11T01:29:28.579Z,65.95
2018-07-11T01:31:56.852Z,66.21
2018-07-11T01:34:25.073Z,66.19
2018-07-11T01:36:53.297Z,66.64
2018-07-11T01:39:21.540Z,66.62
2018-07-11T01:41:49.789Z,67.03
2018-07-11T01:44:18.021Z,67.64
2018-07-11T01:46:48.264Z,67.31
2018-07-11T01:49:16.508Z,66.57
2018-07-11T01:51:56.708Z,66.43
2018-07-11T01:54:25.260Z,66.49
2018-07-11T01:56:53.548Z,65.55
2018-07-11T01:59:22.251Z,66.59
2018-07-11T02:01:50.729Z,66.58
2018-07-11T02:04:18.993Z,66.38
2018-07-11T02:06:47.237Z,66.32
2018-07-11T02:09:15.512Z,66.01
2018-07-11T02:11:43.764Z,66.31
2018-07-11T02:14:12.091Z,66.32
2018-07-11T02:16:40.338Z,66.20
2018-07-11T02:19:08.592Z,66.75
2018-07-11T02:21:36.861Z,66.29
2018-07-11T02:24:05.556Z,65.94
2018-07-11T02:26:33.800Z,65.86
2018-07-11T02:29:02.119Z,65.95
2018-07-11T02:31:30.413Z,65.67
2018-07-11T02:33:58.896Z,65.69
2018-07-11T02:36:27.161Z,65.69
2018-07-11T02:38:55.398Z,65.73
2018-07-11T02:41:23.645Z,65.97
2018-07-11T02:43:51.842Z,64.94
2018-07-11T02:46:24.262Z,64.97
2018-07-11T02:48:52.493Z,66.27
2018-07-11T02:51:20.737Z,65.18
2018-07-11T02:53:48.969Z,65.09
2018-07-11T02:56:17.201Z,64.99
2018-07-11T02:58:45.441Z,66.21
2018-07-11T03:01:13.678Z,65.83
2018-07-11T03:03:41.917Z,66.78
2018-07-11T03:06:10.136Z,66.13
2018-07-11T03:08:38.953Z,66.79
2018-07-11T03:11:07.200Z,66.63
2018-07-11T03:13:35.610Z,66.47
2018-07-11T03:16:03.850Z,66.32
2018-07-11T03:18:32.176Z,66.45
2018-07-11T03:21:00.454Z,66.77
2018-07-11T03:23:28.728Z,67.77
2018-07-11T03:25:57.015Z,66.84
2018-07-11T03:28:25.252Z,66.29
2018-07-11T03:30:53.461Z,67.13
2018-07-11T03:33:21.688Z,67.29
2018-07-11T03:35:49.939Z,67.32
2018-07-11T03:38:18.253Z,67.65
2018-07-11T03:40:46.505Z,67.22
2018-07-11T03:43:14.732Z,67.60
2018-07-11T03:45:42.960Z,67.93
2018-07-11T03:48:11.216Z,67.97
2018-07-11T03:50:39.445Z,67.65
2018-07-11T03:53:07.693Z,67.26
2018-07-11T03:55:35.930Z,68.06
2018-07-11T03:58:04.138Z,67.36
2018-07-11T04:00:32.349Z,68.05
2018-07-11T04:03:00.629Z,68.12
2018-07-11T04:05:28.837Z,68.20
2018-07-11T04:07:57.146Z,67.92
2018-07-11T04:10:25.333Z,67.68
2018-07-11T04:13:01.534Z,68.39
2018-07-11T04:15:29.802Z,68.51
2018-07-11T04:17:58.036Z,68.25
2018-07-11T04:20:26.331Z,67.76
2018-07-11T04:22:54.584Z,68.50
2018-07-11T04:25:22.933Z,68.34
2018-07-11T04:27:51.188Z,68.53
2018-07-11T04:30:19.479Z,69.41
2018-07-11T04:32:47.781Z,69.68
2018-07-11T04:35:16.004Z,69.12
2018-07-11T04:37:44.256Z,68.88
2018-07-11T04:40:12.541Z,68.73
2018-07-11T04:42:40.807Z,68.75
2018-07-11T04:45:09.085Z,69.33
2018-07-11T04:47:37.357Z,68.41
2018-07-11T04:50:05.604Z,68.82
2018-07-11T04:52:33.868Z,67.90
2018-07-11T04:55:02.101Z,67.90
2018-07-11T04:57:30.354Z,68.67
2018-07-11T04:59:58.784Z,68.72
2018-07-11T05:02:27.073Z,68.46
2018-07-11T05:04:55.274Z,68.23
2018-07-11T05:07:23.488Z,68.25
2018-07-11T05:09:51.716Z,67.62
2018-07-11T05:12:20.888Z,68.33
2018-07-11T05:14:49.096Z,67.83
2018-07-11T05:17:17.423Z,67.62
2018-07-11T05:19:45.616Z,68.54
2018-07-11T05:22:13.841Z,67.55
2018-07-11T05:24:42.120Z,68.02
2018-07-11T05:27:10.404Z,68.82
2018-07-11T05:29:38.604Z,68.85
2018-07-11T05:32:06.855Z,68.53
2018-07-11T05:34:35.132Z,67.88
2018-07-11T05:37:03.389Z,68.07
2018-07-11T05:39:31.648Z,68.12
2018-07-11T05:41:59.864Z,67.99
2018-07-11T05:44:28.105Z,68.70
2018-07-11T05:47:01.644Z,68.03
2018-07-11T05:49:30.317Z,68.06
2018-07-11T05:51:58.596Z,68.21
2018-07-11T05:54:26.817Z,67.48
2018-07-11T05:56:55.013Z,68.09
2018-07-11T05:59:23.447Z,68.40
2018-07-11T06:01:51.708Z,67.37
2018-07-11T06:04:20.248Z,67.05
2018-07-11T06:06:48.728Z,67.92
2018-07-11T06:09:17.105Z,67.80
2018-07-11T06:11:45.322Z,68.17
2018-07-11T06:14:13.572Z,68.00
2018-07-11T06:16:41.848Z,67.51
2018-07-11T06:19:10.164Z,67.86
2018-07-11T06:21:38.501Z,67.88
2018-07-11T06:24:07.153Z,67.09
2018-07-11T06:26:35.412Z,66.25
2018-07-11T06:29:03.641Z,66.54
2018-07-11T06:31:31.860Z,67.27
2018-07-11T06:34:00.085Z,66.74
2018-07-11T06:36:28.309Z,66.35
2018-07-11T06:38:56.584Z,66.26
2018-07-11T06:41:24.801Z,66.37
2018-07-11T06:43:53.285Z,67.68
2018-07-11T06:46:21.513Z,67.22
2018-07-11T06:48:49.748Z,67.23
2018-07-11T06:51:17.989Z,67.32
2018-07-11T06:53:46.209Z,66.62
2018-07-11T06:56:14.417Z,67.34
2018-07-11T06:58:42.661Z,67.26
2018-07-11T07:01:10.914Z,67.87
2018-07-11T07:03:39.453Z,66.71
2018-07-11T07:06:07.636Z,67.16
2018-07-11T07:08:35.841Z,67.11
2018-07-11T07:11:04.072Z,66.26
2018-07-11T07:13:32.306Z,66.25
2018-07-11T07:16:00.526Z,66.18
2018-07-11T07:18:28.765Z,67.03
2018-07-11T07:20:57.005Z,66.02
2018-07-11T07:23:25.227Z,67.06
2018-07-11T07:25:53.449Z,67.26
2018-07-11T07:28:21.688Z,66.92
2018-07-11T07:30:49.944Z,66.93
2018-07-11T07:33:18.192Z,66.25
2018-07-11T07:35:46.504Z,66.77
2018-07-11T07:38:14.705Z,67.16
2018-07-11T07:40:42.908Z,67.68
2018-07-11T07:43:11.149Z,66.84
2018-07-11T07:45:40.600Z,67.16
2018-07-11T07:48:08.873Z,66.49
2018-07-11T07:50:37.152Z,66.55
2018-07-11T07:53:05.463Z,66.14
2018-07-11T07:55:33.745Z,67.06
2018-07-11T07:58:02.048Z,66.33
2018-07-11T08:00:30.325Z,65.63
2018-07-11T08:02:59.032Z,66.25
2018-07-11T08:05:27.289Z,65.48
2018-07-11T08:07:55.537Z,65.94
2018-07-11T08:10:23.892Z,65.17
2018-07-11T08:12:52.110Z,64.96
2018-07-11T08:15:20.334Z,65.02
2018-07-11T08:17:48.558Z,65.83
2018-07-11T08:20:16.798Z,65.24
2018-07-11T08:23:23.046Z,64.52
2018-07-11T08:26:03.605Z,65.00
2018-07-11T08:30:46.961Z,65.77
2018-07-11T08:35:33.611Z,64.36
2018-07-11T08:38:24.306Z,64.13
2018-07-11T08:41:16.279Z,64.14
2018-07-11T08:47:01.899Z,63.93
2018-07-11T08:49:40.306Z,62.64
2018-07-11T08:52:49.884Z,62.13
2018-07-11T08:56:41.157Z,62.53
2018-07-11T08:59:20.881Z,63.55
2018-07-11T09:03:02.277Z,63.22
2018-07-11T09:07:48.101Z,62.23
2018-07-11T09:12:31.780Z,61.73
2018-07-11T09:15:11.324Z,60.91
2018-07-11T09:18:20.245Z,61.00
2018-07-11T09:21:17.773Z,62.53
2018-07-11T09:23:57.376Z,61.52
2018-07-11T09:26:25.592Z,61.40
2018-07-11T09:28:53.878Z,60.70
2018-07-11T09:31:22.116Z,58.84
2018-07-11T09:33:50.569Z,59.42
2018-07-11T09:36:18.841Z,60.59
2018-07-11T09:38:47.162Z,59.03
2018-07-11T09:41:15.340Z,58.21
2018-07-11T09:43:43.837Z,58.79
2018-07-11T09:46:12.077Z,57.92
2018-07-11T09:48:40.305Z,56.86
2018-07-11T09:51:08.985Z,57.26
2018-07-11T09:53:37.632Z,57.65
2018-07-11T09:56:06.329Z,57.15
2018-07-11T09:58:34.589Z,55.58
2018-07-11T10:01:08.244Z,55.27
2018-07-11T10:03:36.508Z,56.05
2018-07-11T10:06:04.785Z,55.37
2018-07-11T10:08:33.020Z,55.37
2018-07-11T10:11:01.235Z,56.17
2018-07-11T10:13:29.436Z,55.70
2018-07-11T10:15:57.681Z,55.71
2018-07-11T10:18:25.912Z,55.32
2018-07-11T10:20:54.129Z,54.94
2018-07-11T10:23:22.344Z,54.18
2018-07-11T10:25:50.628Z,53.71
2018-07-11T10:28:20.080Z,54.63
2018-07-11T10:30:48.688Z,55.07
2018-07-11T10:33:16.931Z,53.03
2018-07-11T10:35:45.145Z,54.22
2018-07-11T10:38:13.538Z,52.90
2018-07-11T10:40:41.865Z,51.96
2018-07-11T10:43:10.429Z,51.34
2018-07-11T10:45:38.674Z,51.81
2018-07-11T10:48:06.906Z,52.06
2018-07-11T10:50:35.159Z,52.51
2018-07-11T10:53:03.344Z,49.50
2018-07-11T10:55:31.581Z,47.74
2018-07-11T10:57:59.887Z,47.39
2018-07-11T11:00:36.664Z,47.32
2018-07-11T11:02:58.790Z,46.75
2018-07-11T11:05:27.012Z,46.73
2018-07-11T11:07:55.279Z,46.44
2018-07-11T11:10:23.489Z,46.53
2018-07-11T11:12:51.716Z,46.38
2018-07-11T11:15:19.932Z,45.37
2018-07-11T11:17:48.145Z,44.25
2018-07-11T11:20:16.376Z,43.41
2018-07-11T11:22:44.677Z,42.39
2018-07-11T11:25:12.925Z,43.78
2018-07-11T11:27:41.153Z,44.17
2018-07-11T11:30:09.360Z,44.41
2018-07-11T11:32:37.598Z,46.73
2018-07-11T11:35:06.117Z,46.20
2018-07-11T11:37:34.397Z,45.39
2018-07-11T11:40:02.642Z,45.85
2018-07-11T11:42:31.253Z,45.74
2018-07-11T11:44:59.101Z,44.59
2018-07-11T11:47:28.496Z,45.72
2018-07-11T11:49:57.498Z,45.47
2018-07-11T11:52:26.006Z,43.86
2018-07-11T11:54:54.693Z,45.31
2018-07-11T11:57:23.357Z,44.55
2018-07-11T11:59:51.906Z,45.68
2018-07-11T12:02:20.216Z,45.47
2018-07-11T12:04:48.456Z,44.31
2018-07-11T12:07:16.744Z,42.38
2018-07-11T12:09:45.017Z,41.12
2018-07-11T12:12:13.275Z,42.50
2018-07-11T12:14:41.476Z,40.47
2018-07-11T12:17:09.789Z,40.20
2018-07-11T12:19:38.037Z,40.96
2018-07-11T12:22:06.436Z,42.33
2018-07-11T12:24:34.710Z,41.22
2018-07-11T12:27:03.025Z,39.29
2018-07-11T12:29:31.240Z,38.81
2018-07-11T12:31:59.461Z,38.57
2018-07-11T12:34:27.685Z,40.10
2018-07-11T12:36:56.711Z,41.48
2018-07-11T12:39:24.984Z,41.05
2018-07-11T12:41:53.245Z,40.13
2018-07-11T12:44:21.500Z,40.03
2018-07-11T12:46:49.760Z,39.53
2018-07-11T12:49:18.026Z,40.84
2018-07-11T12:51:46.257Z,40.36
2018-07-11T12:54:14.514Z,40.95
2018-07-11T12:56:42.745Z,40.70
2018-07-11T12:59:11.014Z,41.80
2018-07-11T13:01:39.326Z,43.16
2018-07-11T13:04:07.669Z,42.35
2018-07-11T13:06:37.528Z,43.12
2018-07-11T13:09:06.714Z,42.38
2018-07-11T13:11:35.014Z,43.20
2018-07-11T13:14:03.301Z,44.28
2018-07-11T13:16:31.621Z,43.65
2018-07-11T13:18:59.808Z,44.60
2018-07-11T13:21:28.048Z,44.41
2018-07-11T13:23:56.272Z,45.16
2018-07-11T13:26:24.484Z,43.92
2018-07-11T13:28:52.741Z,46.08
2018-07-11T13:31:21.013Z,46.49
2018-07-11T13:33:49.336Z,45.79
2018-07-11T13:36:17.565Z,46.55
2018-07-11T13:38:45.785Z,46.88
2018-07-11T13:41:14.100Z,47.01
2018-07-11T13:43:42.360Z,45.72
2018-07-11T13:46:10.591Z,46.69
2018-07-11T13:48:38.798Z,46.75
2018-07-11T13:51:07.053Z,45.55
2018-07-11T13:53:35.336Z,47.11
2018-07-11T13:56:03.620Z,47.21
2018-07-11T13:58:31.883Z,47.04
2018-07-11T14:01:00.247Z,46.74
2018-07-11T14:03:28.504Z,46.82
2018-07-11T14:05:56.745Z,46.09
2018-07-11T14:08:25.924Z,46.22
2018-07-11T14:10:54.345Z,46.60
2018-07-11T14:13:22.588Z,47.56
2018-07-11T14:15:50.791Z,47.98
2018-07-11T14:18:18.997Z,47.73
2018-07-11T14:20:47.204Z,47.81
2018-07-11T14:23:20.593Z,48.61
2018-07-11T14:25:49.532Z,48.57
2018-07-11T14:28:24.400Z,46.99
2018-07-11T14:30:52.641Z,48.59
2018-07-11T14:33:21.454Z,48.68
2018-07-11T14:35:49.681Z,47.96
2018-07-11T14:38:17.941Z,47.28
2018-07-11T14:40:46.191Z,48.03
2018-07-11T14:43:14.421Z,48.40
2018-07-11T14:45:42.706Z,49.16
2018-07-11T14:48:15.169Z,49.39
2018-07-11T14:50:43.824Z,49.09
2018-07-11T14:53:12.193Z,52.25
2018-07-11T14:55:40.445Z,51.81
2018-07-11T14:58:08.689Z,52.75
2018-07-11T15:00:36.937Z,53.86
2018-07-11T15:03:05.196Z,54.92
2018-07-11T15:05:33.444Z,55.33
2018-07-11T15:08:01.739Z,58.16
2018-07-11T15:10:30.010Z,57.56
2018-07-11T15:12:58.280Z,58.17
2018-07-11T15:15:26.521Z,59.38
2018-07-11T15:17:54.748Z,58.79
2018-07-11T15:20:23.021Z,60.05
2018-07-11T15:22:51.333Z,60.07
2018-07-11T15:25:19.549Z,61.37
2018-07-11T15:27:47.824Z,63.86
2018-07-11T15:30:16.085Z,63.99
2018-07-11T15:32:44.404Z,64.94
2018-07-11T15:35:12.608Z,66.04
2018-07-11T15:37:40.857Z,66.53
2018-07-11T15:40:09.121Z,65.56
2018-07-11T15:42:37.381Z,65.22
2018-07-11T15:45:05.968Z,65.38
2018-07-11T15:47:35.737Z,65.40
2018-07-11T15:50:04.189Z,65.05
2018-07-11T15:52:34.458Z,65.62
2018-07-11T15:55:04.485Z,65.04
2018-07-11T15:57:35.201Z,64.25
2018-07-11T16:00:08.773Z,64.12
2018-07-11T16:02:46.934Z,65.19
2018-07-11T16:05:18.415Z,65.55
2018-07-11T16:07:48.770Z,65.38
2018-07-11T16:10:18.676Z,64.86
2018-07-11T16:12:46.973Z,64.55
2018-07-11T16:15:15.228Z,65.72
2018-07-11T16:17:43.453Z,65.54
2018-07-11T16:20:11.673Z,65.63
2018-07-11T16:22:39.920Z,65.80
2018-07-11T16:25:08.145Z,66.17
2018-07-11T16:27:36.461Z,66.48
2018-07-11T16:30:04.802Z,67.25
2018-07-11T16:32:33.047Z,66.92
2018-07-11T16:35:01.273Z,68.31
2018-07-11T16:37:29.521Z,67.06
2018-07-11T16:39:57.772Z,66.75
2018-07-11T16:42:26.005Z,67.86
2018-07-11T16:44:54.257Z,67.05
2018-07-11T16:47:22.580Z,65.41
2018-07-11T16:49:50.974Z,65.68
2018-07-11T16:52:19.253Z,65.37
2018-07-11T16:54:47.529Z,66.26
2018-07-11T16:57:21.435Z,65.57
2018-07-11T16:59:56.688Z,66.89
2018-07-11T17:02:26.061Z,66.48
2018-07-11T17:04:55.900Z,66.57
2018-07-11T17:07:25.609Z,67.25
2018-07-11T17:09:56.369Z,67.02
2018-07-11T17:12:25.492Z,66.95
2018-07-11T17:14:57.761Z,67.37
2018-07-11T17:17:30.348Z,67.27
2018-07-11T17:20:04.077Z,68.43
2018-07-11T17:22:35.173Z,69.14
2018-07-11T17:25:06.433Z,70.44
2018-07-11T17:27:34.741Z,71.01
2018-07-11T17:30:03.980Z,71.45
2018-07-11T17:32:32.581Z,71.82
2018-07-11T17:35:00.852Z,71.56
2018-07-11T17:37:32.494Z,73.48
2018-07-11T17:40:08.905Z,73.49
2018-07-11T17:42:37.164Z,74.73
2018-07-11T17:45:14.615Z,75.41
2018-07-11T17:49:59.305Z,75.22
2018-07-11T17:52:28.612Z,74.62
2018-07-11T17:55:14.269Z,74.76
2018-07-11T17:57:52.021Z,75.42
2018-07-11T18:00:56.969Z,75.65
2018-07-11T18:03:41.950Z,76.52
2018-07-11T18:06:25.600Z,75.81
2018-07-11T18:09:05.569Z,76.17
2018-07-11T18:12:44.338Z,76.40
2018-07-11T18:15:26.890Z,76.26
2018-07-11T18:18:16.946Z,77.00
2018-07-11T18:20:51.369Z,76.84
2018-07-11T18:23:44.481Z,76.38
2018-07-11T18:26:18.913Z,76.53
2018-07-11T18:28:59.365Z,78.12
2018-07-11T18:31:46.105Z,77.23
2018-07-11T18:34:27.323Z,77.89
2018-07-11T18:37:07.785Z,78.45
2018-07-11T18:39:44.403Z,78.19
2018-07-11T18:42:49.081Z,77.92
2018-07-11T18:48:31.245Z,77.77
2018-07-11T18:51:06.421Z,77.13
2018-07-11T18:54:13.989Z,77.01
2018-07-11T18:56:57.960Z,77.15
2018-07-11T18:59:35.406Z,77.35
2018-07-11T19:02:14.435Z,78.44
2018-07-11T19:05:22.264Z,77.48
2018-07-11T19:07:55.314Z,77.91
2018-07-11T19:11:36.261Z,79.46
2018-07-11T19:14:08.905Z,79.06
2018-07-11T19:16:56.845Z,79.78
2018-07-11T19:19:33.024Z,78.56
2018-07-11T19:22:03.273Z,78.61
2018-07-11T19:24:49.017Z,78.71
2018-07-11T19:27:31.109Z,78.19
2018-07-11T19:30:22.165Z,77.82
2018-07-11T19:33:00.944Z,79.07
2018-07-11T19:37:42.908Z,79.11
2018-07-11T19:40:15.094Z,78.56
2018-07-11T19:45:29.403Z,78.57
2018-07-11T19:50:16.948Z,77.57
2018-07-11T19:52:53.585Z,78.64
2018-07-11T19:56:37.157Z,78.85
2018-07-11T19:59:05.420Z,79.14
2018-07-11T20:01:33.668Z,79.39
2018-07-11T20:04:01.965Z,78.74
2018-07-11T20:06:30.308Z,79.41
2018-07-11T20:08:58.641Z,79.64
2018-07-11T20:11:26.910Z,79.37
2018-07-11T20:13:55.491Z,78.74
2018-07-11T20:16:24.386Z,79.68
2018-07-11T20:18:52.767Z,79.61
2018-07-11T20:21:21.685Z,79.63
2018-07-11T20:23:49.988Z,79.81
2018-07-11T20:26:19.096Z,79.61
2018-07-11T20:28:47.373Z,78.75
2018-07-11T20:31:16.058Z,79.13
2018-07-11T20:33:44.364Z,79.10
2018-07-11T20:36:12.845Z,79.70
2018-07-11T20:38:41.745Z,80.38
2018-07-11T20:41:10.136Z,79.38
2018-07-11T20:43:38.404Z,80.21
2018-07-11T20:46:07.337Z,80.12
2018-07-11T20:48:37.256Z,79.97
2018-07-11T20:51:05.743Z,79.84
2018-07-11T20:53:33.978Z,80.02
2018-07-11T20:56:02.180Z,79.91
2018-07-11T20:58:41.605Z,78.44
2018-07-11T21:01:21.140Z,79.53
2018-07-11T21:07:09.759Z,78.77
2018-07-11T21:09:49.777Z,78.05
2018-07-11T21:14:32.029Z,79.43
2018-07-11T21:17:14.780Z,79.32
2018-07-11T21:19:43.038Z,78.80
2018-07-11T21:22:11.237Z,79.54
2018-07-11T21:24:39.497Z,79.60
2018-07-11T21:27:07.763Z,80.14
2018-07-11T21:29:36.040Z,79.77
2018-07-11T21:32:04.292Z,79.77
2018-07-11T21:34:32.531Z,78.74
2018-07-11T21:37:00.845Z,79.72
2018-07-11T21:39:29.193Z,79.84
2018-07-11T21:41:57.444Z,79.22
2018-07-11T21:44:25.692Z,79.49
2018-07-11T21:46:53.913Z,79.24
2018-07-11T21:49:23.031Z,79.42
2018-07-11T21:51:51.657Z,79.27
2018-07-11T21:54:19.905Z,80.27
2018-07-11T21:56:48.121Z,80.28
2018-07-11T21:59:16.367Z,79.50
2018-07-11T22:01:44.601Z,80.36
2018-07-11T22:04:12.856Z,79.32
2018-07-11T22:06:41.077Z,79.95
2018-07-11T22:09:09.333Z,78.87
2018-07-11T22:11:37.565Z,78.95
2018-07-11T22:14:05.868Z,79.78
2018-07-11T22:16:34.141Z,79.86
2018-07-11T22:19:02.394Z,79.61
2018-07-11T22:21:29.509Z,79.85
2018-07-11T22:23:56.629Z,78.99
2018-07-11T22:26:23.740Z,80.09
2018-07-11T22:28:50.864Z,79.47
2018-07-11T22:31:17.968Z,80.26
2018-07-11T22:33:45.113Z,78.96
2018-07-11T22:36:12.224Z,80.25
2018-07-11T22:38:39.368Z,80.32
2018-07-11T22:41:06.488Z,80.04
2018-07-11T22:43:33.614Z,80.40
2018-07-11T22:46:00.755Z,79.73
2018-07-11T22:48:27.857Z,80.72
2018-07-11T22:50:54.976Z,79.76
2018-07-11T22:53:22.133Z,80.55
2018-07-11T22:55:49.274Z,80.47
2018-07-11T22:58:16.400Z,79.87
2018-07-11T23:00:43.521Z,80.78
2018-07-11T23:03:10.638Z,80.89
2018-07-11T23:05:37.772Z,80.53
2018-07-11T23:08:04.909Z,81.25
2018-07-11T23:10:32.025Z,79.95
2018-07-11T23:12:59.277Z,79.87
2018-07-11T23:15:26.384Z,79.77
2018-07-11T23:17:53.500Z,80.55
2018-07-11T23:20:20.683Z,80.86
2018-07-11T23:22:47.749Z,80.48
2018-07-11T23:25:14.874Z,80.27
2018-07-11T23:27:41.988Z,80.21
2018-07-11T23:30:09.117Z,80.61
2018-07-11T23:32:36.236Z,80.57
2018-07-11T23:35:03.361Z,80.42
2018-07-11T23:37:30.472Z,80.14
2018-07-11T23:39:57.599Z,79.31
2018-07-11T23:42:24.717Z,79.97
2018-07-11T23:44:51.838Z,80.10
2018-07-11T23:47:18.945Z,79.20
2018-07-11T23:49:46.070Z,80.08
2018-07-11T23:52:13.181Z,79.85
2018-07-11T23:54:40.309Z,79.92
2018-07-11T23:57:07.421Z,79.66
2018-07-11T23:59:34.573Z,80.40
